sensor_id;sensor_type;location;lat;lon;timestamp;P1;durP1;ratioP1;P2;durP2;ratioP2
25263;SDS011;13211;51.796;5.808;2023-07-31T00:00:54;3.13;;;1.98;;
25263;SDS011;13211;51.796;5.808;2023-07-31T00:03:22;5.85;;;2.03;;
25263;SDS011;13211;51.796;5.808;2023-07-31T00:05:49;6.57;;;2.80;;
25263;SDS011;13211;51.796;5.808;2023-07-31T00:08:17;4.75;;;2.97;;
25263;SDS011;13211;51.796;5.808;2023-07-31T00:10:44;9.30;;;4.38;;
25263;SDS011;13211;51.796;5.808;2023-07-31T00:13:12;13.23;;;5.57;;
25263;SDS011;13211;51.796;5.808;2023-07-31T00:15:39;19.10;;;6.75;;
25263;SDS011;13211;51.796;5.808;2023-07-31T00:18:07;22.67;;;8.52;;
25263;SDS011;13211;51.796;5.808;2023-07-31T00:20:34;38.05;;;11.15;;
25263;SDS011;13211;51.796;5.808;2023-07-31T00:23:02;35.28;;;10.90;;
25263;SDS011;13211;51.796;5.808;2023-07-31T00:25:29;51.38;;;13.60;;
25263;SDS011;13211;51.796;5.808;2023-07-31T00:27:57;46.35;;;13.95;;
25263;SDS011;13211;51.796;5.808;2023-07-31T00:30:25;44.33;;;14.38;;
25263;SDS011;13211;51.796;5.808;2023-07-31T00:32:53;50.35;;;15.85;;
25263;SDS011;13211;51.796;5.808;2023-07-31T00:35:21;54.95;;;15.23;;
25263;SDS011;13211;51.796;5.808;2023-07-31T00:37:48;57.50;;;15.13;;
25263;SDS011;13211;51.796;5.808;2023-07-31T00:40:16;53.15;;;15.05;;
25263;SDS011;13211;51.796;5.808;2023-07-31T00:42:44;65.78;;;15.27;;
25263;SDS011;13211;51.796;5.808;2023-07-31T00:45:11;49.25;;;13.85;;
25263;SDS011;13211;51.796;5.808;2023-07-31T00:47:39;49.97;;;14.70;;
25263;SDS011;13211;51.796;5.808;2023-07-31T00:50:07;48.90;;;13.55;;
25263;SDS011;13211;51.796;5.808;2023-07-31T00:52:35;47.42;;;14.68;;
25263;SDS011;13211;51.796;5.808;2023-07-31T00:55:03;52.35;;;13.70;;
25263;SDS011;13211;51.796;5.808;2023-07-31T00:57:31;50.13;;;13.68;;
25263;SDS011;13211;51.796;5.808;2023-07-31T00:59:59;44.38;;;13.25;;
25263;SDS011;13211;51.796;5.808;2023-07-31T01:02:27;51.15;;;13.82;;
25263;SDS011;13211;51.796;5.808;2023-07-31T01:04:55;48.38;;;14.27;;
25263;SDS011;13211;51.796;5.808;2023-07-31T01:07:35;48.25;;;12.82;;
25263;SDS011;13211;51.796;5.808;2023-07-31T01:10:07;42.78;;;13.23;;
25263;SDS011;13211;51.796;5.808;2023-07-31T01:12:35;36.15;;;12.18;;
25263;SDS011;13211;51.796;5.808;2023-07-31T01:15:06;36.00;;;12.48;;
25263;SDS011;13211;51.796;5.808;2023-07-31T01:17:38;49.13;;;13.98;;
25263;SDS011;13211;51.796;5.808;2023-07-31T01:20:27;41.65;;;12.65;;
25263;SDS011;13211;51.796;5.808;2023-07-31T01:25:52;39.67;;;12.05;;
25263;SDS011;13211;51.796;5.808;2023-07-31T01:28:24;40.63;;;12.07;;
25263;SDS011;13211;51.796;5.808;2023-07-31T01:30:52;40.63;;;13.43;;
25263;SDS011;13211;51.796;5.808;2023-07-31T01:33:21;41.75;;;12.23;;
25263;SDS011;13211;51.796;5.808;2023-07-31T01:35:49;42.28;;;12.82;;
25263;SDS011;13211;51.796;5.808;2023-07-31T01:38:21;40.47;;;12.52;;
25263;SDS011;13211;51.796;5.808;2023-07-31T01:43:16;38.38;;;11.05;;
25263;SDS011;13211;51.796;5.808;2023-07-31T01:45:44;36.13;;;11.00;;
25263;SDS011;13211;51.796;5.808;2023-07-31T01:48:11;29.95;;;10.20;;
25263;SDS011;13211;51.796;5.808;2023-07-31T01:50:40;36.20;;;10.50;;
25263;SDS011;13211;51.796;5.808;2023-07-31T01:53:08;37.63;;;10.00;;
25263;SDS011;13211;51.796;5.808;2023-07-31T01:55:35;33.83;;;10.35;;
25263;SDS011;13211;51.796;5.808;2023-07-31T01:58:03;37.15;;;10.85;;
25263;SDS011;13211;51.796;5.808;2023-07-31T02:00:30;32.65;;;10.32;;
25263;SDS011;13211;51.796;5.808;2023-07-31T02:02:59;34.38;;;10.05;;
25263;SDS011;13211;51.796;5.808;2023-07-31T02:05:27;34.08;;;10.90;;
25263;SDS011;13211;51.796;5.808;2023-07-31T02:07:54;38.42;;;10.88;;
25263;SDS011;13211;51.796;5.808;2023-07-31T02:10:26;31.80;;;9.50;;
25263;SDS011;13211;51.796;5.808;2023-07-31T02:12:53;28.95;;;9.85;;
25263;SDS011;13211;51.796;5.808;2023-07-31T02:15:21;34.70;;;9.95;;
25263;SDS011;13211;51.796;5.808;2023-07-31T02:17:48;31.27;;;10.00;;
25263;SDS011;13211;51.796;5.808;2023-07-31T02:20:16;33.33;;;9.68;;
25263;SDS011;13211;51.796;5.808;2023-07-31T02:22:43;35.33;;;9.65;;
25263;SDS011;13211;51.796;5.808;2023-07-31T02:25:10;37.83;;;9.80;;
25263;SDS011;13211;51.796;5.808;2023-07-31T02:27:38;28.83;;;8.25;;
25263;SDS011;13211;51.796;5.808;2023-07-31T02:30:06;26.48;;;8.40;;
25263;SDS011;13211;51.796;5.808;2023-07-31T02:32:33;35.20;;;8.63;;
25263;SDS011;13211;51.796;5.808;2023-07-31T02:35:01;32.67;;;9.55;;
25263;SDS011;13211;51.796;5.808;2023-07-31T02:37:29;40.80;;;9.48;;
25263;SDS011;13211;51.796;5.808;2023-07-31T02:39:56;29.50;;;8.60;;
25263;SDS011;13211;51.796;5.808;2023-07-31T02:42:27;27.45;;;8.27;;
25263;SDS011;13211;51.796;5.808;2023-07-31T02:44:54;39.50;;;9.40;;
25263;SDS011;13211;51.796;5.808;2023-07-31T02:47:22;34.58;;;8.18;;
25263;SDS011;13211;51.796;5.808;2023-07-31T02:49:50;39.13;;;9.10;;
25263;SDS011;13211;51.796;5.808;2023-07-31T02:52:17;38.15;;;8.55;;
25263;SDS011;13211;51.796;5.808;2023-07-31T02:54:46;25.63;;;8.13;;
25263;SDS011;13211;51.796;5.808;2023-07-31T02:57:13;34.90;;;8.80;;
25263;SDS011;13211;51.796;5.808;2023-07-31T02:59:42;35.70;;;8.75;;
25263;SDS011;13211;51.796;5.808;2023-07-31T03:02:10;30.77;;;8.48;;
25263;SDS011;13211;51.796;5.808;2023-07-31T03:04:38;30.85;;;8.10;;
25263;SDS011;13211;51.796;5.808;2023-07-31T03:07:06;29.08;;;7.93;;
25263;SDS011;13211;51.796;5.808;2023-07-31T03:09:33;29.35;;;8.10;;
25263;SDS011;13211;51.796;5.808;2023-07-31T03:12:01;31.00;;;8.15;;
25263;SDS011;13211;51.796;5.808;2023-07-31T03:14:29;26.08;;;7.47;;
25263;SDS011;13211;51.796;5.808;2023-07-31T03:16:57;35.53;;;8.15;;
25263;SDS011;13211;51.796;5.808;2023-07-31T03:19:24;38.88;;;8.10;;
25263;SDS011;13211;51.796;5.808;2023-07-31T03:21:52;37.08;;;8.93;;
25263;SDS011;13211;51.796;5.808;2023-07-31T03:24:19;31.42;;;7.32;;
25263;SDS011;13211;51.796;5.808;2023-07-31T03:26:47;29.90;;;7.40;;
25263;SDS011;13211;51.796;5.808;2023-07-31T03:29:15;27.88;;;7.80;;
25263;SDS011;13211;51.796;5.808;2023-07-31T03:31:43;34.92;;;8.43;;
25263;SDS011;13211;51.796;5.808;2023-07-31T03:34:10;31.85;;;7.82;;
25263;SDS011;13211;51.796;5.808;2023-07-31T03:36:38;26.20;;;7.13;;
25263;SDS011;13211;51.796;5.808;2023-07-31T03:39:06;32.90;;;7.05;;
25263;SDS011;13211;51.796;5.808;2023-07-31T03:41:33;32.80;;;7.72;;
25263;SDS011;13211;51.796;5.808;2023-07-31T03:44:01;22.35;;;6.75;;
25263;SDS011;13211;51.796;5.808;2023-07-31T03:46:30;31.70;;;8.15;;
25263;SDS011;13211;51.796;5.808;2023-07-31T03:48:57;29.95;;;7.30;;
25263;SDS011;13211;51.796;5.808;2023-07-31T03:51:25;31.92;;;7.75;;
25263;SDS011;13211;51.796;5.808;2023-07-31T03:53:53;31.08;;;7.72;;
25263;SDS011;13211;51.796;5.808;2023-07-31T03:56:20;24.85;;;6.60;;
25263;SDS011;13211;51.796;5.808;2023-07-31T03:58:47;31.35;;;8.15;;
25263;SDS011;13211;51.796;5.808;2023-07-31T04:01:15;30.55;;;8.35;;
25263;SDS011;13211;51.796;5.808;2023-07-31T04:03:43;29.05;;;7.85;;
25263;SDS011;13211;51.796;5.808;2023-07-31T04:06:10;34.40;;;7.65;;
25263;SDS011;13211;51.796;5.808;2023-07-31T04:08:38;29.95;;;7.95;;
25263;SDS011;13211;51.796;5.808;2023-07-31T04:11:05;31.60;;;7.40;;
25263;SDS011;13211;51.796;5.808;2023-07-31T04:13:33;35.47;;;7.85;;
25263;SDS011;13211;51.796;5.808;2023-07-31T04:16:01;31.88;;;7.53;;
25263;SDS011;13211;51.796;5.808;2023-07-31T04:18:28;24.52;;;7.63;;
25263;SDS011;13211;51.796;5.808;2023-07-31T04:20:57;27.13;;;7.35;;
25263;SDS011;13211;51.796;5.808;2023-07-31T04:23:25;25.83;;;7.63;;
25263;SDS011;13211;51.796;5.808;2023-07-31T04:25:53;31.15;;;7.68;;
25263;SDS011;13211;51.796;5.808;2023-07-31T04:28:20;29.63;;;7.28;;
25263;SDS011;13211;51.796;5.808;2023-07-31T04:30:48;22.95;;;6.82;;
25263;SDS011;13211;51.796;5.808;2023-07-31T04:33:16;25.85;;;6.60;;
25263;SDS011;13211;51.796;5.808;2023-07-31T04:35:52;25.98;;;7.22;;
25263;SDS011;13211;51.796;5.808;2023-07-31T04:38:21;27.20;;;6.85;;
25263;SDS011;13211;51.796;5.808;2023-07-31T04:40:48;25.45;;;6.63;;
25263;SDS011;13211;51.796;5.808;2023-07-31T04:43:16;26.20;;;6.88;;
25263;SDS011;13211;51.796;5.808;2023-07-31T04:45:47;25.13;;;6.68;;
25263;SDS011;13211;51.796;5.808;2023-07-31T04:48:14;23.38;;;6.50;;
25263;SDS011;13211;51.796;5.808;2023-07-31T04:50:42;34.35;;;7.65;;
25263;SDS011;13211;51.796;5.808;2023-07-31T04:53:10;32.75;;;7.30;;
25263;SDS011;13211;51.796;5.808;2023-07-31T04:55:38;32.65;;;6.80;;
25263;SDS011;13211;51.796;5.808;2023-07-31T04:58:05;22.45;;;6.85;;
25263;SDS011;13211;51.796;5.808;2023-07-31T05:00:33;23.13;;;6.50;;
25263;SDS011;13211;51.796;5.808;2023-07-31T05:03:01;25.92;;;7.03;;
25263;SDS011;13211;51.796;5.808;2023-07-31T05:05:29;27.27;;;6.22;;
25263;SDS011;13211;51.796;5.808;2023-07-31T05:07:56;25.30;;;6.20;;
25263;SDS011;13211;51.796;5.808;2023-07-31T05:10:24;46.38;;;6.70;;
25263;SDS011;13211;51.796;5.808;2023-07-31T05:12:52;24.55;;;6.15;;
25263;SDS011;13211;51.796;5.808;2023-07-31T05:15:19;27.48;;;7.07;;
25263;SDS011;13211;51.796;5.808;2023-07-31T05:17:47;29.90;;;7.32;;
25263;SDS011;13211;51.796;5.808;2023-07-31T05:20:14;19.55;;;5.43;;
25263;SDS011;13211;51.796;5.808;2023-07-31T05:22:42;26.73;;;6.22;;
25263;SDS011;13211;51.796;5.808;2023-07-31T05:25:09;22.25;;;5.70;;
25263;SDS011;13211;51.796;5.808;2023-07-31T05:27:37;24.50;;;6.28;;
25263;SDS011;13211;51.796;5.808;2023-07-31T05:30:05;22.42;;;6.03;;
25263;SDS011;13211;51.796;5.808;2023-07-31T05:32:33;21.38;;;6.68;;
25263;SDS011;13211;51.796;5.808;2023-07-31T05:35:00;26.88;;;6.40;;
25263;SDS011;13211;51.796;5.808;2023-07-31T05:37:28;19.38;;;6.50;;
25263;SDS011;13211;51.796;5.808;2023-07-31T05:39:55;25.25;;;7.20;;
25263;SDS011;13211;51.796;5.808;2023-07-31T05:42:23;26.15;;;7.40;;
25263;SDS011;13211;51.796;5.808;2023-07-31T05:44:50;29.45;;;7.32;;
25263;SDS011;13211;51.796;5.808;2023-07-31T05:47:18;21.40;;;6.68;;
25263;SDS011;13211;51.796;5.808;2023-07-31T05:49:46;22.50;;;7.13;;
25263;SDS011;13211;51.796;5.808;2023-07-31T05:52:13;27.10;;;6.70;;
25263;SDS011;13211;51.796;5.808;2023-07-31T05:54:41;24.65;;;6.55;;
25263;SDS011;13211;51.796;5.808;2023-07-31T05:57:09;22.20;;;7.00;;
25263;SDS011;13211;51.796;5.808;2023-07-31T05:59:37;29.25;;;6.88;;
25263;SDS011;13211;51.796;5.808;2023-07-31T06:02:05;29.17;;;7.88;;
25263;SDS011;13211;51.796;5.808;2023-07-31T06:04:33;27.58;;;7.03;;
25263;SDS011;13211;51.796;5.808;2023-07-31T06:07:01;24.75;;;7.30;;
25263;SDS011;13211;51.796;5.808;2023-07-31T06:09:29;20.75;;;6.90;;
25263;SDS011;13211;51.796;5.808;2023-07-31T06:11:56;30.15;;;7.57;;
25263;SDS011;13211;51.796;5.808;2023-07-31T06:14:24;25.58;;;7.25;;
25263;SDS011;13211;51.796;5.808;2023-07-31T06:16:52;26.90;;;7.45;;
25263;SDS011;13211;51.796;5.808;2023-07-31T06:19:19;25.55;;;7.45;;
25263;SDS011;13211;51.796;5.808;2023-07-31T06:21:47;28.15;;;8.13;;
25263;SDS011;13211;51.796;5.808;2023-07-31T06:24:14;20.48;;;6.57;;
25263;SDS011;13211;51.796;5.808;2023-07-31T06:26:45;23.95;;;7.00;;
25263;SDS011;13211;51.796;5.808;2023-07-31T06:29:13;22.15;;;7.22;;
25263;SDS011;13211;51.796;5.808;2023-07-31T06:31:40;15.93;;;6.47;;
25263;SDS011;13211;51.796;5.808;2023-07-31T06:34:08;22.02;;;6.60;;
25263;SDS011;13211;51.796;5.808;2023-07-31T06:36:36;17.10;;;5.25;;
25263;SDS011;13211;51.796;5.808;2023-07-31T06:39:04;13.57;;;4.97;;
25263;SDS011;13211;51.796;5.808;2023-07-31T06:41:31;15.18;;;5.85;;
25263;SDS011;13211;51.796;5.808;2023-07-31T06:44:04;13.43;;;4.82;;
25263;SDS011;13211;51.796;5.808;2023-07-31T06:46:31;12.95;;;4.70;;
25263;SDS011;13211;51.796;5.808;2023-07-31T06:49:02;16.38;;;4.70;;
25263;SDS011;13211;51.796;5.808;2023-07-31T06:51:29;10.30;;;4.13;;
25263;SDS011;13211;51.796;5.808;2023-07-31T06:54:00;11.75;;;4.13;;
25263;SDS011;13211;51.796;5.808;2023-07-31T06:56:32;8.57;;;4.40;;
25263;SDS011;13211;51.796;5.808;2023-07-31T06:59:00;12.70;;;4.63;;
25263;SDS011;13211;51.796;5.808;2023-07-31T07:01:28;7.38;;;3.80;;
25263;SDS011;13211;51.796;5.808;2023-07-31T07:03:55;10.02;;;4.22;;
25263;SDS011;13211;51.796;5.808;2023-07-31T07:06:23;6.05;;;3.42;;
25263;SDS011;13211;51.796;5.808;2023-07-31T07:08:50;8.48;;;3.58;;
25263;SDS011;13211;51.796;5.808;2023-07-31T07:11:18;6.68;;;3.42;;
25263;SDS011;13211;51.796;5.808;2023-07-31T07:13:45;7.13;;;3.50;;
25263;SDS011;13211;51.796;5.808;2023-07-31T07:16:13;6.57;;;3.25;;
25263;SDS011;13211;51.796;5.808;2023-07-31T07:18:41;6.63;;;2.88;;
25263;SDS011;13211;51.796;5.808;2023-07-31T07:21:23;6.97;;;2.85;;
25263;SDS011;13211;51.796;5.808;2023-07-31T07:23:51;7.95;;;3.17;;
25263;SDS011;13211;51.796;5.808;2023-07-31T07:26:19;5.88;;;3.28;;
25263;SDS011;13211;51.796;5.808;2023-07-31T07:28:47;6.05;;;3.28;;
25263;SDS011;13211;51.796;5.808;2023-07-31T07:31:15;5.88;;;2.80;;
25263;SDS011;13211;51.796;5.808;2023-07-31T07:33:42;4.65;;;2.63;;
25263;SDS011;13211;51.796;5.808;2023-07-31T07:36:10;4.05;;;2.58;;
25263;SDS011;13211;51.796;5.808;2023-07-31T07:38:39;4.40;;;2.70;;
25263;SDS011;13211;51.796;5.808;2023-07-31T07:41:07;6.05;;;3.38;;
25263;SDS011;13211;51.796;5.808;2023-07-31T07:43:35;7.22;;;3.47;;
25263;SDS011;13211;51.796;5.808;2023-07-31T07:46:03;6.30;;;3.33;;
25263;SDS011;13211;51.796;5.808;2023-07-31T07:48:30;9.00;;;2.95;;
25263;SDS011;13211;51.796;5.808;2023-07-31T07:50:58;4.85;;;3.22;;
25263;SDS011;13211;51.796;5.808;2023-07-31T07:53:26;7.53;;;3.05;;
25263;SDS011;13211;51.796;5.808;2023-07-31T07:55:53;5.63;;;3.25;;
25263;SDS011;13211;51.796;5.808;2023-07-31T07:58:21;8.05;;;3.35;;
25263;SDS011;13211;51.796;5.808;2023-07-31T08:00:51;6.05;;;3.65;;
25263;SDS011;13211;51.796;5.808;2023-07-31T08:03:19;5.85;;;3.42;;
25263;SDS011;13211;51.796;5.808;2023-07-31T08:05:47;7.80;;;3.47;;
25263;SDS011;13211;51.796;5.808;2023-07-31T08:08:15;7.10;;;3.65;;
25263;SDS011;13211;51.796;5.808;2023-07-31T08:10:42;7.28;;;3.40;;
25263;SDS011;13211;51.796;5.808;2023-07-31T08:13:11;5.57;;;3.35;;
25263;SDS011;13211;51.796;5.808;2023-07-31T08:15:40;7.55;;;3.78;;
25263;SDS011;13211;51.796;5.808;2023-07-31T08:18:09;9.45;;;4.25;;
25263;SDS011;13211;51.796;5.808;2023-07-31T08:20:38;7.20;;;3.92;;
25263;SDS011;13211;51.796;5.808;2023-07-31T08:23:05;7.80;;;4.65;;
25263;SDS011;13211;51.796;5.808;2023-07-31T08:25:36;8.75;;;4.43;;
25263;SDS011;13211;51.796;5.808;2023-07-31T08:28:04;7.47;;;4.80;;
25263;SDS011;13211;51.796;5.808;2023-07-31T08:30:32;9.60;;;4.68;;
25263;SDS011;13211;51.796;5.808;2023-07-31T08:33:00;9.88;;;5.40;;
25263;SDS011;13211;51.796;5.808;2023-07-31T08:35:27;9.43;;;4.50;;
25263;SDS011;13211;51.796;5.808;2023-07-31T08:37:55;10.25;;;4.90;;
25263;SDS011;13211;51.796;5.808;2023-07-31T08:40:23;10.98;;;5.07;;
25263;SDS011;13211;51.796;5.808;2023-07-31T08:42:53;8.30;;;4.72;;
25263;SDS011;13211;51.796;5.808;2023-07-31T08:45:22;9.18;;;4.40;;
25263;SDS011;13211;51.796;5.808;2023-07-31T08:47:51;10.18;;;5.07;;
25263;SDS011;13211;51.796;5.808;2023-07-31T08:50:19;7.80;;;5.20;;
25263;SDS011;13211;51.796;5.808;2023-07-31T08:52:48;10.57;;;4.95;;
25263;SDS011;13211;51.796;5.808;2023-07-31T08:55:16;8.63;;;5.38;;
25263;SDS011;13211;51.796;5.808;2023-07-31T08:57:43;7.70;;;4.45;;
25263;SDS011;13211;51.796;5.808;2023-07-31T09:00:11;8.60;;;5.00;;
25263;SDS011;13211;51.796;5.808;2023-07-31T09:05:10;11.88;;;5.43;;
25263;SDS011;13211;51.796;5.808;2023-07-31T09:07:38;6.57;;;4.32;;
25263;SDS011;13211;51.796;5.808;2023-07-31T09:10:06;7.35;;;4.60;;
25263;SDS011;13211;51.796;5.808;2023-07-31T09:12:34;10.05;;;3.97;;
25263;SDS011;13211;51.796;5.808;2023-07-31T09:15:03;9.27;;;4.78;;
25263;SDS011;13211;51.796;5.808;2023-07-31T09:17:32;7.90;;;4.43;;
25263;SDS011;13211;51.796;5.808;2023-07-31T09:20:16;8.85;;;4.93;;
25263;SDS011;13211;51.796;5.808;2023-07-31T09:22:45;8.10;;;4.50;;
25263;SDS011;13211;51.796;5.808;2023-07-31T09:27:46;9.63;;;4.82;;
25263;SDS011;13211;51.796;5.808;2023-07-31T09:30:14;7.20;;;5.05;;
25263;SDS011;13211;51.796;5.808;2023-07-31T09:32:42;11.10;;;6.03;;
25263;SDS011;13211;51.796;5.808;2023-07-31T09:35:18;9.95;;;6.13;;
25263;SDS011;13211;51.796;5.808;2023-07-31T09:37:50;12.95;;;6.30;;
25263;SDS011;13211;51.796;5.808;2023-07-31T09:40:25;13.88;;;6.57;;
25263;SDS011;13211;51.796;5.808;2023-07-31T09:43:00;13.65;;;7.07;;
25263;SDS011;13211;51.796;5.808;2023-07-31T09:45:28;14.63;;;7.57;;
25263;SDS011;13211;51.796;5.808;2023-07-31T09:48:07;14.00;;;7.45;;
25263;SDS011;13211;51.796;5.808;2023-07-31T09:50:37;19.90;;;8.68;;
25263;SDS011;13211;51.796;5.808;2023-07-31T09:53:05;17.08;;;8.05;;
25263;SDS011;13211;51.796;5.808;2023-07-31T09:55:33;18.13;;;8.93;;
25263;SDS011;13211;51.796;5.808;2023-07-31T09:58:08;16.92;;;9.30;;
25263;SDS011;13211;51.796;5.808;2023-07-31T10:00:36;18.27;;;8.60;;
25263;SDS011;13211;51.796;5.808;2023-07-31T10:03:05;17.05;;;9.23;;
25263;SDS011;13211;51.796;5.808;2023-07-31T10:08:03;21.60;;;10.15;;
25263;SDS011;13211;51.796;5.808;2023-07-31T10:10:31;18.85;;;9.10;;
25263;SDS011;13211;51.796;5.808;2023-07-31T10:12:59;20.85;;;9.52;;
25263;SDS011;13211;51.796;5.808;2023-07-31T10:15:27;19.30;;;9.30;;
25263;SDS011;13211;51.796;5.808;2023-07-31T10:17:55;18.75;;;9.50;;
25263;SDS011;13211;51.796;5.808;2023-07-31T10:20:23;19.27;;;9.52;;
25263;SDS011;13211;51.796;5.808;2023-07-31T10:22:51;22.02;;;9.90;;
25263;SDS011;13211;51.796;5.808;2023-07-31T10:25:21;20.60;;;9.35;;
25263;SDS011;13211;51.796;5.808;2023-07-31T10:27:49;19.48;;;8.70;;
25263;SDS011;13211;51.796;5.808;2023-07-31T10:30:21;23.40;;;9.57;;
25263;SDS011;13211;51.796;5.808;2023-07-31T10:32:50;18.17;;;8.60;;
25263;SDS011;13211;51.796;5.808;2023-07-31T10:35:19;20.98;;;8.65;;
25263;SDS011;13211;51.796;5.808;2023-07-31T10:37:48;17.75;;;8.52;;
25263;SDS011;13211;51.796;5.808;2023-07-31T10:40:23;19.80;;;8.55;;
25263;SDS011;13211;51.796;5.808;2023-07-31T10:45:27;13.82;;;7.28;;
25263;SDS011;13211;51.796;5.808;2023-07-31T10:48:01;12.43;;;6.82;;
25263;SDS011;13211;51.796;5.808;2023-07-31T10:50:29;14.38;;;6.75;;
25263;SDS011;13211;51.796;5.808;2023-07-31T10:52:59;14.77;;;6.57;;
25263;SDS011;13211;51.796;5.808;2023-07-31T10:55:28;10.88;;;6.45;;
25263;SDS011;13211;51.796;5.808;2023-07-31T10:57:57;10.82;;;6.00;;
25263;SDS011;13211;51.796;5.808;2023-07-31T11:00:28;15.48;;;6.15;;
25263;SDS011;13211;51.796;5.808;2023-07-31T11:03:00;15.20;;;6.40;;
25263;SDS011;13211;51.796;5.808;2023-07-31T11:10:43;15.90;;;5.90;;
25263;SDS011;13211;51.796;5.808;2023-07-31T11:13:10;10.63;;;5.70;;
25263;SDS011;13211;51.796;5.808;2023-07-31T11:15:38;13.93;;;5.97;;
25263;SDS011;13211;51.796;5.808;2023-07-31T11:18:05;13.50;;;6.07;;
25263;SDS011;13211;51.796;5.808;2023-07-31T11:20:35;15.73;;;5.53;;
25263;SDS011;13211;51.796;5.808;2023-07-31T11:23:04;15.10;;;5.40;;
25263;SDS011;13211;51.796;5.808;2023-07-31T11:25:32;11.93;;;5.32;;
25263;SDS011;13211;51.796;5.808;2023-07-31T11:28:07;12.38;;;5.70;;
25263;SDS011;13211;51.796;5.808;2023-07-31T11:30:35;10.32;;;5.07;;
25263;SDS011;13211;51.796;5.808;2023-07-31T11:33:03;12.43;;;6.00;;
25263;SDS011;13211;51.796;5.808;2023-07-31T11:35:34;11.07;;;5.30;;
25263;SDS011;13211;51.796;5.808;2023-07-31T11:38:02;10.75;;;4.75;;
25263;SDS011;13211;51.796;5.808;2023-07-31T11:40:30;11.68;;;5.05;;
25263;SDS011;13211;51.796;5.808;2023-07-31T11:42:58;8.25;;;4.60;;
25263;SDS011;13211;51.796;5.808;2023-07-31T11:45:31;8.23;;;4.82;;
25263;SDS011;13211;51.796;5.808;2023-07-31T11:47:59;9.50;;;4.97;;
25263;SDS011;13211;51.796;5.808;2023-07-31T11:50:26;12.13;;;5.50;;
25263;SDS011;13211;51.796;5.808;2023-07-31T11:52:57;16.58;;;5.85;;
25263;SDS011;13211;51.796;5.808;2023-07-31T11:57:54;9.32;;;5.10;;
25263;SDS011;13211;51.796;5.808;2023-07-31T12:00:22;14.75;;;5.40;;
25263;SDS011;13211;51.796;5.808;2023-07-31T12:02:50;16.45;;;5.70;;
25263;SDS011;13211;51.796;5.808;2023-07-31T12:05:18;11.93;;;5.45;;
25263;SDS011;13211;51.796;5.808;2023-07-31T12:07:50;12.90;;;5.50;;
25263;SDS011;13211;51.796;5.808;2023-07-31T12:12:59;12.68;;;5.25;;
25263;SDS011;13211;51.796;5.808;2023-07-31T12:18:03;10.50;;;4.97;;
25263;SDS011;13211;51.796;5.808;2023-07-31T12:20:31;9.75;;;4.90;;
25263;SDS011;13211;51.796;5.808;2023-07-31T12:22:59;11.23;;;5.50;;
25263;SDS011;13211;51.796;5.808;2023-07-31T12:25:30;10.00;;;5.28;;
25263;SDS011;13211;51.796;5.808;2023-07-31T12:28:03;13.85;;;6.00;;
25263;SDS011;13211;51.796;5.808;2023-07-31T12:30:32;12.27;;;6.03;;
25263;SDS011;13211;51.796;5.808;2023-07-31T12:33:14;8.95;;;5.38;;
25263;SDS011;13211;51.796;5.808;2023-07-31T12:35:43;10.98;;;4.93;;
25263;SDS011;13211;51.796;5.808;2023-07-31T12:38:11;11.93;;;5.20;;
25263;SDS011;13211;51.796;5.808;2023-07-31T12:40:40;13.70;;;5.03;;
25263;SDS011;13211;51.796;5.808;2023-07-31T12:43:08;10.75;;;4.97;;
25263;SDS011;13211;51.796;5.808;2023-07-31T12:45:37;13.90;;;4.95;;
25263;SDS011;13211;51.796;5.808;2023-07-31T12:48:04;14.95;;;4.93;;
25263;SDS011;13211;51.796;5.808;2023-07-31T12:50:32;9.98;;;4.72;;
25263;SDS011;13211;51.796;5.808;2023-07-31T12:55:30;10.18;;;4.95;;
25263;SDS011;13211;51.796;5.808;2023-07-31T12:57:58;8.77;;;5.07;;
25263;SDS011;13211;51.796;5.808;2023-07-31T13:00:25;7.03;;;4.57;;
25263;SDS011;13211;51.796;5.808;2023-07-31T13:02:53;7.53;;;4.07;;
25263;SDS011;13211;51.796;5.808;2023-07-31T13:05:21;7.80;;;4.65;;
25263;SDS011;13211;51.796;5.808;2023-07-31T13:07:49;9.02;;;4.65;;
25263;SDS011;13211;51.796;5.808;2023-07-31T13:10:18;7.10;;;4.40;;
25263;SDS011;13211;51.796;5.808;2023-07-31T13:12:46;8.48;;;4.70;;
25263;SDS011;13211;51.796;5.808;2023-07-31T13:15:14;9.73;;;4.85;;
25263;SDS011;13211;51.796;5.808;2023-07-31T13:17:45;11.73;;;4.95;;
25263;SDS011;13211;51.796;5.808;2023-07-31T13:20:13;8.57;;;4.95;;
25263;SDS011;13211;51.796;5.808;2023-07-31T13:22:41;13.95;;;5.63;;
25263;SDS011;13211;51.796;5.808;2023-07-31T13:25:12;10.88;;;5.75;;
25263;SDS011;13211;51.796;5.808;2023-07-31T13:27:39;10.38;;;5.30;;
25263;SDS011;13211;51.796;5.808;2023-07-31T13:30:07;11.32;;;5.85;;
25263;SDS011;13211;51.796;5.808;2023-07-31T13:32:35;12.80;;;6.32;;
25263;SDS011;13211;51.796;5.808;2023-07-31T13:35:06;10.57;;;5.43;;
25263;SDS011;13211;51.796;5.808;2023-07-31T13:37:34;10.80;;;5.97;;
25263;SDS011;13211;51.796;5.808;2023-07-31T13:40:02;16.27;;;6.38;;
25263;SDS011;13211;51.796;5.808;2023-07-31T13:42:32;17.43;;;7.73;;
25263;SDS011;13211;51.796;5.808;2023-07-31T13:44:59;15.30;;;7.38;;
25263;SDS011;13211;51.796;5.808;2023-07-31T13:47:32;15.60;;;7.68;;
25263;SDS011;13211;51.796;5.808;2023-07-31T13:49:59;20.55;;;8.32;;
25263;SDS011;13211;51.796;5.808;2023-07-31T13:52:27;17.75;;;7.50;;
25263;SDS011;13211;51.796;5.808;2023-07-31T13:54:55;18.75;;;8.27;;
25263;SDS011;13211;51.796;5.808;2023-07-31T13:57:23;16.67;;;7.78;;
25263;SDS011;13211;51.796;5.808;2023-07-31T13:59:54;15.65;;;6.88;;
25263;SDS011;13211;51.796;5.808;2023-07-31T14:02:21;19.10;;;7.72;;
25263;SDS011;13211;51.796;5.808;2023-07-31T14:04:49;14.88;;;7.10;;
25263;SDS011;13211;51.796;5.808;2023-07-31T14:07:17;17.55;;;7.40;;
25263;SDS011;13211;51.796;5.808;2023-07-31T14:09:45;13.07;;;6.32;;
25263;SDS011;13211;51.796;5.808;2023-07-31T14:12:13;14.48;;;6.50;;
25263;SDS011;13211;51.796;5.808;2023-07-31T14:15:00;20.50;;;6.75;;
25263;SDS011;13211;51.796;5.808;2023-07-31T14:17:29;19.05;;;6.95;;
25263;SDS011;13211;51.796;5.808;2023-07-31T14:19:57;20.00;;;6.47;;
25263;SDS011;13211;51.796;5.808;2023-07-31T14:22:31;18.63;;;6.40;;
25263;SDS011;13211;51.796;5.808;2023-07-31T14:25:01;15.88;;;6.53;;
25263;SDS011;13211;51.796;5.808;2023-07-31T14:27:29;17.38;;;6.10;;
25263;SDS011;13211;51.796;5.808;2023-07-31T14:29:56;12.80;;;6.35;;
25263;SDS011;13211;51.796;5.808;2023-07-31T14:32:24;17.05;;;6.97;;
25263;SDS011;13211;51.796;5.808;2023-07-31T14:34:52;13.50;;;6.78;;
25263;SDS011;13211;51.796;5.808;2023-07-31T14:37:21;12.57;;;7.40;;
25263;SDS011;13211;51.796;5.808;2023-07-31T14:39:49;18.50;;;7.78;;
25263;SDS011;13211;51.796;5.808;2023-07-31T14:42:17;19.38;;;8.13;;
25263;SDS011;13211;51.796;5.808;2023-07-31T14:44:47;16.53;;;7.43;;
25263;SDS011;13211;51.796;5.808;2023-07-31T14:47:14;12.80;;;6.80;;
25263;SDS011;13211;51.796;5.808;2023-07-31T14:49:42;14.27;;;6.95;;
25263;SDS011;13211;51.796;5.808;2023-07-31T14:52:09;18.58;;;7.70;;
25263;SDS011;13211;51.796;5.808;2023-07-31T14:54:37;21.65;;;7.57;;
25263;SDS011;13211;51.796;5.808;2023-07-31T14:57:05;16.90;;;8.15;;
25263;SDS011;13211;51.796;5.808;2023-07-31T14:59:33;22.35;;;7.85;;
25263;SDS011;13211;51.796;5.808;2023-07-31T15:02:00;16.48;;;6.85;;
25263;SDS011;13211;51.796;5.808;2023-07-31T15:04:29;13.95;;;6.80;;
25263;SDS011;13211;51.796;5.808;2023-07-31T15:06:57;15.65;;;6.68;;
25263;SDS011;13211;51.796;5.808;2023-07-31T15:09:25;14.93;;;6.93;;
25263;SDS011;13211;51.796;5.808;2023-07-31T15:11:52;16.45;;;7.38;;
25263;SDS011;13211;51.796;5.808;2023-07-31T15:14:20;17.40;;;7.15;;